createdAt,value
2019-04-21T00:00:00.442Z,4.90
2019-04-21T00:01:12.747Z,4.60
2019-04-21T00:01:59.751Z,5.30
2019-04-21T00:03:07.275Z,5.10
2019-04-21T00:04:11.384Z,4.90
2019-04-21T00:05:21.402Z,4.70
2019-04-21T00:07:23.810Z,5.50
2019-04-21T00:08:27.162Z,4.80
2019-04-21T00:09:27.398Z,4.60
2019-04-21T00:10:18.746Z,4.50
2019-04-21T00:11:24.966Z,5.10
2019-04-21T00:12:17.985Z,5.40
2019-04-21T00:13:14.795Z,5.00
2019-04-21T00:14:16.273Z,4.90
2019-04-21T00:15:09.768Z,5.00
2019-04-21T00:16:06.744Z,4.70
2019-04-21T00:17:07.956Z,4.60
2019-04-21T00:18:03.681Z,4.80
2019-04-21T00:19:10.376Z,4.30
2019-04-21T00:20:15.543Z,4.80
2019-04-21T00:21:11.020Z,4.80
2019-04-21T00:22:09.944Z,4.90
2019-04-21T00:23:19.523Z,4.50
2019-04-21T00:24:16.262Z,4.70
2019-04-21T00:25:13.918Z,4.30
2019-04-21T00:26:16.436Z,5.00
2019-04-21T00:27:15.643Z,4.90
2019-04-21T00:28:28.959Z,4.90
2019-04-21T00:29:25.822Z,4.80
2019-04-21T00:30:21.430Z,4.90
2019-04-21T00:31:15.053Z,5.10
2019-04-21T00:32:21.961Z,5.10
2019-04-21T00:33:09.117Z,4.60
2019-04-21T00:34:00.493Z,5.30
2019-04-21T00:35:07.602Z,5.30
2019-04-21T00:36:09.593Z,4.80
2019-04-21T00:37:12.227Z,5.10
2019-04-21T00:38:21.414Z,5.10
2019-04-21T00:39:28.769Z,4.80
2019-04-21T00:40:22.228Z,4.80
2019-04-21T00:41:27.744Z,5.00
2019-04-21T00:42:18.439Z,4.70
2019-04-21T00:43:19.687Z,5.00
2019-04-21T00:44:11.562Z,4.70
2019-04-21T00:45:15.222Z,4.70
2019-04-21T00:46:10.781Z,4.60
2019-04-21T00:47:14.094Z,5.10
2019-04-21T00:48:24.033Z,4.60
2019-04-21T00:49:18.264Z,4.70
2019-04-21T00:50:19.022Z,4.90
2019-04-21T00:51:36.065Z,4.90
2019-04-21T00:52:30.212Z,5.10
2019-04-21T00:53:32.150Z,5.30
2019-04-21T00:54:27.775Z,4.90
2019-04-21T00:55:29.668Z,5.40
2019-04-21T00:56:21.993Z,5.20
2019-04-21T00:57:26.562Z,4.70
2019-04-21T00:58:24.154Z,4.70
2019-04-21T00:59:28.223Z,5.20
2019-04-21T01:00:22.306Z,5.10
2019-04-21T01:01:19.881Z,5.50
2019-04-21T01:02:27.905Z,4.90
2019-04-21T01:03:32.717Z,4.60
2019-04-21T01:04:29.431Z,5.10
2019-04-21T01:05:21.384Z,4.90
2019-04-21T01:06:22.621Z,5.00
2019-04-21T01:07:19.379Z,4.90
2019-04-21T01:08:19.979Z,5.10
2019-04-21T01:09:20.187Z,5.30
2019-04-21T01:10:14.864Z,4.90
2019-04-21T01:11:23.851Z,4.80
2019-04-21T01:12:19.265Z,4.80
2019-04-21T01:13:15.918Z,4.90
2019-04-21T01:14:32.893Z,5.40
2019-04-21T01:15:26.114Z,5.60
2019-04-21T01:16:27.265Z,5.40
2019-04-21T01:17:22.901Z,4.70
2019-04-21T01:18:20.968Z,5.40
2019-04-21T01:19:15.784Z,5.50
2019-04-21T01:20:13.307Z,5.60
2019-04-21T01:20:59.840Z,5.80
2019-04-21T01:21:58.820Z,5.60
2019-04-21T01:23:00.138Z,4.90
2019-04-21T01:24:08.189Z,5.00
2019-04-21T01:25:11.130Z,5.50
2019-04-21T01:26:16.759Z,5.60
2019-04-21T01:27:11.238Z,5.60
2019-04-21T01:28:19.527Z,5.50
2019-04-21T01:29:15.770Z,5.40
2019-04-21T01:30:22.325Z,5.50
2019-04-21T01:31:17.356Z,5.60
2019-04-21T01:32:23.969Z,6.40
2019-04-21T01:33:21.714Z,5.70
2019-04-21T01:34:34.172Z,6.30
2019-04-21T01:35:23.919Z,6.70
2019-04-21T01:36:18.144Z,6.10
2019-04-21T01:37:21.198Z,6.30
2019-04-21T01:38:24.178Z,5.90
2019-04-21T01:39:19.999Z,5.90
2019-04-21T01:40:25.695Z,6.00
2019-04-21T01:41:25.468Z,6.60
2019-04-21T01:42:21.063Z,6.10
2019-04-21T01:43:21.845Z,5.50
2019-04-21T01:44:27.290Z,5.80
2019-04-21T01:45:15.942Z,5.70
2019-04-21T01:46:14.127Z,6.20
2019-04-21T01:47:19.006Z,5.50
2019-04-21T01:48:15.870Z,6.00
2019-04-21T01:49:11.541Z,6.50
2019-04-21T01:50:14.072Z,6.40
2019-04-21T01:51:15.751Z,6.00
2019-04-21T01:52:25.422Z,5.80
2019-04-21T01:53:23.906Z,6.10
2019-04-21T01:54:26.835Z,6.40
2019-04-21T01:55:18.449Z,6.50
2019-04-21T01:56:16.969Z,6.30
2019-04-21T01:57:17.758Z,6.10
2019-04-21T01:58:15.711Z,6.60
2019-04-21T01:59:06.888Z,6.40
2019-04-21T02:00:12.471Z,6.40
2019-04-21T02:01:21.178Z,5.60
2019-04-21T02:02:19.306Z,6.80
2019-04-21T02:04:23.994Z,6.20
2019-04-21T02:05:36.364Z,6.00
2019-04-21T02:06:21.311Z,5.80
2019-04-21T02:07:20.361Z,6.40
2019-04-21T02:08:15.399Z,6.60
2019-04-21T02:09:18.925Z,6.20
2019-04-21T02:10:26.994Z,6.00
2019-04-21T02:11:23.105Z,6.10
2019-04-21T02:12:19.966Z,6.60
2019-04-21T02:13:16.878Z,6.60
2019-04-21T02:14:23.695Z,5.90
2019-04-21T02:15:25.063Z,6.30
2019-04-21T02:16:19.016Z,6.30
2019-04-21T02:19:19.813Z,6.60
2019-04-21T02:20:11.976Z,6.20
2019-04-21T02:21:16.706Z,6.50
2019-04-21T02:22:19.212Z,5.90
2019-04-21T02:23:33.111Z,6.10
2019-04-21T02:24:33.246Z,6.30
2019-04-21T02:25:20.094Z,6.50
2019-04-21T02:26:22.998Z,6.40
2019-04-21T02:28:33.539Z,5.90
2019-04-21T02:29:20.635Z,6.20
2019-04-21T02:30:29.409Z,6.60
2019-04-21T02:31:40.606Z,6.20
2019-04-21T02:32:39.006Z,6.60
2019-04-21T02:37:05.343Z,6.00
2019-04-21T02:40:29.395Z,5.70
2019-04-21T02:41:30.859Z,6.60
2019-04-21T02:43:24.887Z,6.70
2019-04-21T02:45:34.985Z,6.80
2019-04-21T02:47:36.995Z,6.50
2019-04-21T02:48:39.085Z,7.10
2019-04-21T02:51:33.791Z,6.20
2019-04-21T02:52:50.124Z,6.90
2019-04-21T02:54:07.467Z,6.30
2019-04-21T02:54:48.019Z,5.50
2019-04-21T02:56:34.401Z,6.30
2019-04-21T02:57:39.582Z,6.50
2019-04-21T02:58:34.705Z,6.30
2019-04-21T03:01:33.789Z,5.80
2019-04-21T03:02:33.783Z,6.50
2019-04-21T03:03:43.678Z,6.80
2019-04-21T03:05:48.742Z,6.50
2019-04-21T03:06:29.470Z,6.90
2019-04-21T03:07:44.614Z,6.50
2019-04-21T03:09:30.998Z,6.70
2019-04-21T03:10:41.491Z,6.50
2019-04-21T03:11:25.163Z,6.80
2019-04-21T03:12:22.681Z,7.10
2019-04-21T03:14:40.162Z,7.10
2019-04-21T03:16:26.081Z,6.80
2019-04-21T03:17:29.542Z,6.50
2019-04-21T03:19:43.989Z,6.30
2019-04-21T03:20:39.927Z,7.30
2019-04-21T03:21:28.874Z,7.20
2019-04-21T03:22:24.219Z,6.60
2019-04-21T03:23:31.259Z,7.20
2019-04-21T03:24:49.093Z,6.90
2019-04-21T03:25:45.524Z,6.60
2019-04-21T03:26:48.698Z,7.10
2019-04-21T03:27:40.653Z,6.70
2019-04-21T03:28:32.170Z,6.60
2019-04-21T03:29:44.445Z,6.60
2019-04-21T03:30:55.493Z,6.40
2019-04-21T03:34:22.493Z,6.50
2019-04-21T03:35:58.452Z,7.10
2019-04-21T03:36:56.884Z,7.00
2019-04-21T03:37:30.856Z,7.20
2019-04-21T03:38:40.740Z,6.90
2019-04-21T03:39:28.673Z,6.40
2019-04-21T03:40:27.017Z,7.20
2019-04-21T03:41:31.785Z,6.60
2019-04-21T03:42:34.209Z,6.70
2019-04-21T03:43:28.568Z,7.40
2019-04-21T03:44:32.626Z,7.30
2019-04-21T03:45:30.694Z,6.60
2019-04-21T03:46:33.019Z,6.70
2019-04-21T03:48:35.724Z,5.80
2019-04-21T03:49:43.178Z,5.50
2019-04-21T03:50:39.777Z,5.20
2019-04-21T03:51:25.864Z,5.40
2019-04-21T03:52:29.717Z,5.30
2019-04-21T03:53:31.990Z,5.40
2019-04-21T03:54:26.701Z,4.50
2019-04-21T03:55:51.424Z,5.20
2019-04-21T03:57:49.904Z,5.00
2019-04-21T03:58:41.545Z,5.00
2019-04-21T03:59:24.960Z,4.80
2019-04-21T04:01:22.012Z,5.00
2019-04-21T04:02:34.776Z,4.40
2019-04-21T04:04:00.732Z,4.10
2019-04-21T04:05:34.627Z,4.10
2019-04-21T04:06:59.800Z,4.20
2019-04-21T04:07:32.702Z,4.20
2019-04-21T04:08:44.471Z,3.90
2019-04-21T04:11:41.420Z,4.20
2019-04-21T04:12:32.939Z,3.80
2019-04-21T04:13:39.136Z,3.80
2019-04-21T04:14:34.221Z,3.60
2019-04-21T04:15:40.660Z,3.90
2019-04-21T04:16:28.792Z,3.80
2019-04-21T04:18:39.407Z,3.80
2019-04-21T04:19:34.653Z,3.60
2019-04-21T04:20:28.159Z,4.00
2019-04-21T04:21:37.174Z,3.70
2019-04-21T04:22:31.414Z,3.80
2019-04-21T04:23:35.561Z,4.00
2019-04-21T04:24:34.363Z,3.70
2019-04-21T04:25:28.005Z,3.60
2019-04-21T04:26:31.592Z,3.50
2019-04-21T04:28:41.582Z,3.90
2019-04-21T04:29:24.173Z,3.80
2019-04-21T04:30:32.415Z,3.40
2019-04-21T04:32:28.659Z,3.90
2019-04-21T04:33:39.267Z,3.30
2019-04-21T04:34:35.953Z,3.20
2019-04-21T04:35:48.558Z,3.70
2019-04-21T04:37:46.969Z,3.30
2019-04-21T04:38:36.124Z,3.80
2019-04-21T04:40:38.693Z,3.60
2019-04-21T04:41:35.137Z,3.70
2019-04-21T04:42:52.910Z,3.20
2019-04-21T04:43:29.692Z,3.70
2019-04-21T04:45:35.439Z,3.50
2019-04-21T04:46:28.546Z,3.10
2019-04-21T04:47:47.742Z,3.90
2019-04-21T04:48:28.950Z,3.60
2019-04-21T04:49:39.065Z,3.50
2019-04-21T04:50:36.590Z,3.70
2019-04-21T04:51:48.342Z,3.50
2019-04-21T04:53:31.032Z,3.40
2019-04-21T04:54:40.141Z,3.60
2019-04-21T04:55:25.776Z,3.60
2019-04-21T04:56:47.641Z,3.60
2019-04-21T04:58:44.582Z,3.10
2019-04-21T05:01:32.710Z,4.00
2019-04-21T05:02:33.271Z,3.20
2019-04-21T05:03:36.481Z,3.10
2019-04-21T05:04:40.354Z,3.70
2019-04-21T05:06:42.595Z,3.50
2019-04-21T05:07:34.073Z,3.80
2019-04-21T05:08:49.229Z,3.70
2019-04-21T05:09:23.174Z,3.30
2019-04-21T05:10:44.903Z,3.40
2019-04-21T05:11:50.458Z,3.50
2019-04-21T05:12:26.802Z,3.50
2019-04-21T05:13:27.966Z,3.70
2019-04-21T05:14:25.215Z,3.70
2019-04-21T05:15:25.525Z,3.80
2019-04-21T05:17:38.567Z,3.50
2019-04-21T05:18:26.624Z,3.30
2019-04-21T05:20:23.617Z,3.50
2019-04-21T05:21:37.562Z,3.30
2019-04-21T05:22:22.110Z,3.40
2019-04-21T05:23:18.143Z,3.30
2019-04-21T05:24:16.588Z,3.50
2019-04-21T05:25:13.439Z,3.40
2019-04-21T05:26:09.928Z,3.30
2019-04-21T05:27:15.591Z,3.60
2019-04-21T05:28:12.482Z,3.40
2019-04-21T05:29:11.106Z,3.30
2019-04-21T05:30:24.881Z,3.50
2019-04-21T05:31:23.053Z,3.50
2019-04-21T05:32:22.915Z,3.00
2019-04-21T05:33:20.786Z,3.40
2019-04-21T05:34:18.398Z,3.50
2019-04-21T05:35:20.048Z,3.60
2019-04-21T05:36:14.280Z,3.50
2019-04-21T05:37:22.021Z,2.90
2019-04-21T05:38:16.780Z,3.20
2019-04-21T05:39:14.585Z,3.60
2019-04-21T05:40:12.249Z,3.50
2019-04-21T05:41:12.807Z,3.40
2019-04-21T05:42:23.663Z,3.10
2019-04-21T05:43:23.518Z,2.90
2019-04-21T05:44:19.401Z,3.30
2019-04-21T05:45:22.579Z,3.40
2019-04-21T05:46:21.725Z,3.20
2019-04-21T05:48:24.149Z,2.90
2019-04-21T05:49:19.217Z,3.30
2019-04-21T05:50:19.397Z,3.20
2019-04-21T05:51:13.029Z,3.10
2019-04-21T05:52:14.546Z,3.00
2019-04-21T05:53:24.392Z,2.80
2019-04-21T05:54:24.688Z,2.80
2019-04-21T05:55:17.788Z,3.20
2019-04-21T05:56:27.672Z,3.10
2019-04-21T05:57:14.748Z,3.10
2019-04-21T05:58:12.089Z,3.10
2019-04-21T05:59:15.242Z,3.10
2019-04-21T06:00:23.575Z,3.20
2019-04-21T06:01:23.901Z,3.00
2019-04-21T06:03:23.515Z,3.30
2019-04-21T06:04:26.195Z,3.20
2019-04-21T06:08:20.399Z,2.90
2019-04-21T06:09:19.190Z,2.60
2019-04-21T06:10:20.434Z,2.90
2019-04-21T06:11:28.442Z,2.60
2019-04-21T06:12:20.863Z,2.60
2019-04-21T06:13:38.739Z,2.90
2019-04-21T06:14:21.739Z,2.80
2019-04-21T06:15:27.077Z,2.90
2019-04-21T06:16:21.384Z,3.00
2019-04-21T06:17:25.300Z,3.30
2019-04-21T06:19:23.621Z,3.20
2019-04-21T06:20:21.186Z,3.40
2019-04-21T06:21:15.912Z,3.20
2019-04-21T06:22:13.878Z,3.40
2019-04-21T06:23:20.997Z,3.00
2019-04-21T06:24:17.344Z,3.40
2019-04-21T06:25:41.292Z,3.70
2019-04-21T06:26:44.753Z,3.60
2019-04-21T06:27:22.687Z,3.30
2019-04-21T06:28:20.672Z,3.50
2019-04-21T06:29:24.086Z,3.70
2019-04-21T06:30:22.383Z,3.20
2019-04-21T06:32:30.449Z,3.50
2019-04-21T06:33:24.188Z,3.10
2019-04-21T06:34:18.574Z,3.20
2019-04-21T06:38:26.598Z,3.20
2019-04-21T06:40:30.445Z,3.30
2019-04-21T06:41:28.081Z,3.40
2019-04-21T06:42:13.273Z,3.20
2019-04-21T06:44:34.780Z,3.00
2019-04-21T06:45:18.798Z,3.40
2019-04-21T06:46:27.789Z,3.30
2019-04-21T06:47:26.537Z,3.50
2019-04-21T06:48:25.872Z,2.90
2019-04-21T06:49:13.349Z,3.30
2019-04-21T06:50:22.702Z,3.20
2019-04-21T06:51:23.708Z,3.20
2019-04-21T06:52:42.354Z,3.00
2019-04-21T06:53:20.771Z,3.10
2019-04-21T06:54:38.353Z,3.30
2019-04-21T06:55:16.428Z,3.10
2019-04-21T06:56:23.521Z,3.10
2019-04-21T06:57:21.783Z,3.50
2019-04-21T06:58:22.746Z,2.90
2019-04-21T06:59:13.506Z,3.10
2019-04-21T07:00:18.446Z,3.00
2019-04-21T07:01:26.544Z,3.20
2019-04-21T07:03:20.728Z,3.10
2019-04-21T07:04:28.016Z,3.40
2019-04-21T07:05:21.720Z,3.50
2019-04-21T07:06:23.733Z,2.80
2019-04-21T07:07:17.218Z,3.20
2019-04-21T07:08:31.294Z,2.70
2019-04-21T07:09:20.773Z,3.60
2019-04-21T07:10:22.823Z,2.80
2019-04-21T07:11:16.938Z,3.00
2019-04-21T07:12:13.771Z,3.00
2019-04-21T07:13:16.912Z,3.30
2019-04-21T07:14:34.612Z,3.10
2019-04-21T07:15:33.168Z,2.80
2019-04-21T07:16:18.883Z,2.90
2019-04-21T07:17:24.388Z,3.30
2019-04-21T07:18:25.387Z,3.40
2019-04-21T07:19:33.294Z,2.60
2019-04-21T07:20:17.155Z,2.80
2019-04-21T07:21:25.425Z,2.90
2019-04-21T07:22:19.490Z,2.70
2019-04-21T07:23:22.464Z,2.60
2019-04-21T07:24:21.742Z,2.60
2019-04-21T07:25:32.678Z,3.00
2019-04-21T07:26:19.419Z,2.70
2019-04-21T07:27:17.458Z,2.70
2019-04-21T07:28:21.988Z,2.50
2019-04-21T07:29:22.079Z,2.60
2019-04-21T07:30:21.200Z,2.80
2019-04-21T07:31:17.806Z,2.70
2019-04-21T07:32:15.340Z,2.90
2019-04-21T07:33:41.284Z,2.80
2019-04-21T07:34:25.147Z,2.70
2019-04-21T07:35:31.820Z,2.70
2019-04-21T07:36:21.460Z,2.70
2019-04-21T07:37:20.760Z,2.80
2019-04-21T07:38:16.707Z,2.80
2019-04-21T07:39:15.314Z,2.90
2019-04-21T07:40:14.529Z,3.00
2019-04-21T07:41:09.452Z,3.30
2019-04-21T07:42:13.366Z,3.10
2019-04-21T07:43:12.410Z,3.70
2019-04-21T07:44:09.149Z,3.20
2019-04-21T07:45:11.922Z,3.00
2019-04-21T07:46:22.386Z,3.00
2019-04-21T07:47:17.154Z,3.00
2019-04-21T07:48:19.013Z,3.00
2019-04-21T07:49:12.793Z,3.00
2019-04-21T07:50:16.223Z,2.90
2019-04-21T07:51:20.939Z,2.80
2019-04-21T07:52:18.737Z,3.00
2019-04-21T07:53:21.208Z,3.10
2019-04-21T07:54:23.244Z,2.90
2019-04-21T07:56:06.570Z,3.40
2019-04-21T07:57:12.707Z,2.80
2019-04-21T07:58:17.810Z,3.10
2019-04-21T07:59:22.882Z,3.00
2019-04-21T08:01:18.421Z,2.70
2019-04-21T08:03:15.354Z,2.90
2019-04-21T08:04:37.629Z,2.60
2019-04-21T08:05:20.077Z,3.20
2019-04-21T08:06:20.501Z,3.00
2019-04-21T08:07:26.519Z,2.60
2019-04-21T08:08:14.319Z,2.80
2019-04-21T08:09:12.271Z,2.80
2019-04-21T08:10:15.683Z,2.70
2019-04-21T08:11:16.240Z,3.00
2019-04-21T08:12:09.468Z,2.70
2019-04-21T08:13:18.871Z,2.40
2019-04-21T08:14:19.249Z,2.70
2019-04-21T08:15:19.511Z,2.80
2019-04-21T08:16:21.133Z,2.90
2019-04-21T08:17:30.486Z,2.70
2019-04-21T08:18:11.679Z,2.70
2019-04-21T08:19:19.194Z,2.70
2019-04-21T08:20:14.266Z,2.70
2019-04-21T08:21:15.444Z,2.20
2019-04-21T08:22:15.789Z,2.60
2019-04-21T08:23:19.380Z,2.80
2019-04-21T08:24:17.240Z,2.60
2019-04-21T08:25:16.510Z,2.60
2019-04-21T08:26:14.555Z,3.10
2019-04-21T08:27:23.525Z,2.70
2019-04-21T08:28:13.995Z,2.70
2019-04-21T08:30:16.065Z,2.90
2019-04-21T08:31:14.357Z,2.80
2019-04-21T08:32:21.414Z,2.80
2019-04-21T08:33:25.004Z,3.00
2019-04-21T08:36:23.175Z,2.70
2019-04-21T08:37:15.136Z,3.20
2019-04-21T08:38:13.547Z,3.50
2019-04-21T08:39:13.255Z,3.10
2019-04-21T08:40:19.650Z,3.20
2019-04-21T08:41:12.432Z,2.90
2019-04-21T08:42:23.762Z,3.00
2019-04-21T08:43:20.835Z,3.10
2019-04-21T08:44:20.612Z,3.50
2019-04-21T08:45:18.600Z,3.10
2019-04-21T08:46:18.935Z,2.90
2019-04-21T08:47:19.299Z,3.10
2019-04-21T08:48:31.788Z,3.30
2019-04-21T08:49:15.613Z,3.20
2019-04-21T08:50:17.773Z,3.60
2019-04-21T08:52:21.348Z,3.80
2019-04-21T08:53:15.690Z,3.20
2019-04-21T08:54:16.586Z,3.00
2019-04-21T08:55:19.410Z,3.50
2019-04-21T08:56:15.616Z,3.20
2019-04-21T08:57:19.661Z,3.10
2019-04-21T08:58:22.642Z,3.40
2019-04-21T08:59:18.950Z,3.50
2019-04-21T09:00:21.872Z,3.50
2019-04-21T09:01:20.540Z,3.50
2019-04-21T09:02:16.769Z,3.10
2019-04-21T09:03:17.474Z,3.30
2019-04-21T09:04:13.383Z,3.10
2019-04-21T09:05:15.885Z,3.20
2019-04-21T09:06:13.740Z,3.20
2019-04-21T09:07:20.025Z,3.50
2019-04-21T09:08:20.221Z,3.40
2019-04-21T09:09:16.709Z,3.30
2019-04-21T09:10:09.312Z,3.00
2019-04-21T09:11:12.796Z,3.20
2019-04-21T09:12:10.972Z,3.30
2019-04-21T09:13:11.564Z,3.10
2019-04-21T09:14:13.145Z,3.30
2019-04-21T09:15:13.902Z,3.80
2019-04-21T09:16:09.731Z,3.60
2019-04-21T09:17:06.573Z,3.20
2019-04-21T09:18:10.191Z,3.20
2019-04-21T09:19:33.632Z,3.40
2019-04-21T09:20:22.684Z,3.10
2019-04-21T09:21:13.628Z,2.80
2019-04-21T09:22:12.775Z,2.70
2019-04-21T09:23:18.125Z,2.80
2019-04-21T09:24:18.999Z,3.70
2019-04-21T09:25:21.201Z,3.00
2019-04-21T09:26:14.207Z,2.90
2019-04-21T09:27:08.489Z,3.20
2019-04-21T09:28:11.132Z,3.20
2019-04-21T09:29:05.490Z,3.00
2019-04-21T09:30:00.321Z,3.30
2019-04-21T09:30:58.467Z,3.30
2019-04-21T09:31:57.292Z,3.10
2019-04-21T09:32:57.909Z,3.20
2019-04-21T09:33:59.231Z,3.20
2019-04-21T09:34:55.726Z,2.90
2019-04-21T09:35:59.290Z,2.80
2019-04-21T09:37:10.417Z,3.00
2019-04-21T09:38:02.113Z,2.90
2019-04-21T09:39:02.471Z,2.90
2019-04-21T09:39:57.383Z,3.70
2019-04-21T09:40:54.843Z,3.00
2019-04-21T09:41:56.865Z,3.00
2019-04-21T09:43:01.069Z,3.40
2019-04-21T09:43:56.176Z,3.00
2019-04-21T09:44:57.955Z,3.40
2019-04-21T09:45:54.318Z,3.10
2019-04-21T09:46:56.397Z,3.00
2019-04-21T09:48:02.934Z,2.90
2019-04-21T09:49:00.858Z,3.10
2019-04-21T09:51:08.593Z,3.20
2019-04-21T09:52:13.748Z,3.20
2019-04-21T09:53:16.859Z,3.20
2019-04-21T09:54:13.619Z,3.60
2019-04-21T09:55:14.010Z,3.10
2019-04-21T09:56:14.189Z,3.10
2019-04-21T09:57:15.245Z,3.00
2019-04-21T09:58:18.494Z,3.10
2019-04-21T09:59:19.544Z,2.80
2019-04-21T10:00:15.073Z,3.10
2019-04-21T10:01:19.764Z,3.30
2019-04-21T10:02:16.141Z,2.80
2019-04-21T10:03:11.788Z,3.00
2019-04-21T10:04:08.422Z,3.00
2019-04-21T10:05:07.792Z,3.20
2019-04-21T10:06:08.679Z,2.90
2019-04-21T10:07:07.348Z,3.30
2019-04-21T10:08:08.168Z,2.90
2019-04-21T10:09:10.270Z,3.40
2019-04-21T10:10:08.407Z,3.20
2019-04-21T10:11:07.787Z,3.10
2019-04-21T10:12:07.568Z,3.00
2019-04-21T10:13:07.295Z,2.70
2019-04-21T10:14:07.514Z,2.50
2019-04-21T10:15:08.402Z,2.70
2019-04-21T10:16:07.362Z,3.40
2019-04-21T10:17:08.342Z,3.80
2019-04-21T10:18:08.532Z,3.40
2019-04-21T10:19:07.215Z,3.10
2019-04-21T10:20:07.237Z,3.10
2019-04-21T10:21:17.378Z,2.90
2019-04-21T10:22:08.452Z,2.70
2019-04-21T10:23:07.375Z,2.60
2019-04-21T10:24:08.246Z,3.10
2019-04-21T10:25:07.145Z,2.60
2019-04-21T10:26:08.442Z,2.80
2019-04-21T10:27:08.621Z,2.70
2019-04-21T10:28:07.437Z,2.80
2019-04-21T10:29:14.869Z,2.70
2019-04-21T10:30:08.100Z,2.40
2019-04-21T10:31:07.083Z,2.40
2019-04-21T10:32:07.071Z,2.30
2019-04-21T10:33:08.198Z,2.90
2019-04-21T10:34:07.467Z,2.50
2019-04-21T10:35:07.766Z,2.50
2019-04-21T10:36:07.053Z,2.80
2019-04-21T10:37:07.130Z,2.70
2019-04-21T10:38:20.563Z,2.50
2019-04-21T10:39:09.297Z,2.50
2019-04-21T10:40:07.539Z,2.80
2019-04-21T10:41:07.693Z,2.40
2019-04-21T10:42:06.949Z,2.40
2019-04-21T10:43:10.044Z,2.80
2019-04-21T10:44:09.225Z,2.90
2019-04-21T10:45:07.320Z,2.60
2019-04-21T10:46:06.909Z,2.90
2019-04-21T10:47:06.991Z,3.10
2019-04-21T10:48:07.282Z,2.60
2019-04-21T10:49:06.884Z,2.80
2019-04-21T10:50:06.864Z,2.80
2019-04-21T10:51:07.415Z,2.50
2019-04-21T10:52:19.350Z,3.10
2019-04-21T10:53:07.043Z,2.60
2019-04-21T10:54:08.248Z,3.30
2019-04-21T10:55:28.969Z,2.40
2019-04-21T10:56:14.524Z,2.90
2019-04-21T10:57:08.351Z,2.50
2019-04-21T10:58:06.804Z,2.50
2019-04-21T10:59:07.934Z,2.80
2019-04-21T11:00:09.081Z,2.80
2019-04-21T11:01:08.304Z,2.80
2019-04-21T11:02:07.274Z,3.00
2019-04-21T11:03:06.753Z,2.50
2019-04-21T11:04:16.051Z,3.10
2019-04-21T11:05:08.977Z,3.10
2019-04-21T11:06:06.680Z,2.90
2019-04-21T11:07:13.546Z,2.90
2019-04-21T11:08:18.073Z,3.10
2019-04-21T11:09:08.833Z,3.10
2019-04-21T11:10:07.943Z,2.70
2019-04-21T11:11:07.871Z,2.60
2019-04-21T11:12:08.145Z,2.60
2019-04-21T11:13:06.610Z,2.70
2019-04-21T11:14:06.654Z,3.30
2019-04-21T11:15:07.273Z,3.00
2019-04-21T11:16:06.568Z,2.80
2019-04-21T11:17:07.890Z,3.20
2019-04-21T11:18:06.557Z,2.60
2019-04-21T11:19:07.291Z,2.80
2019-04-21T11:20:06.708Z,2.50
2019-04-21T11:21:06.990Z,3.00
2019-04-21T11:22:07.174Z,3.10
2019-04-21T11:23:20.997Z,2.70
2019-04-21T11:24:06.494Z,2.90
2019-04-21T11:25:06.998Z,2.80
2019-04-21T11:26:06.565Z,2.70
2019-04-21T11:27:06.786Z,3.10
2019-04-21T11:28:07.057Z,2.90
2019-04-21T11:29:07.266Z,2.90
2019-04-21T11:30:07.496Z,2.90
2019-04-21T11:31:07.045Z,2.80
2019-04-21T11:32:07.209Z,3.00
2019-04-21T11:33:07.006Z,2.70
2019-04-21T11:34:07.298Z,2.80
2019-04-21T11:35:07.343Z,2.70
2019-04-21T11:36:07.043Z,2.80
2019-04-21T11:37:06.340Z,2.80
2019-04-21T11:38:16.201Z,2.50
2019-04-21T11:39:21.045Z,2.80
2019-04-21T11:40:10.819Z,2.60
2019-04-21T11:41:07.717Z,2.60
2019-04-21T11:42:06.323Z,2.40
2019-04-21T11:43:06.324Z,2.70
2019-04-21T11:44:06.265Z,2.50
2019-04-21T11:45:06.364Z,2.30
2019-04-21T11:46:06.510Z,2.80
2019-04-21T11:47:06.638Z,2.30
2019-04-21T11:48:06.275Z,2.80
2019-04-21T11:49:06.420Z,2.40
2019-04-21T11:50:07.388Z,2.70
2019-04-21T11:51:06.817Z,2.70
2019-04-21T11:52:07.021Z,2.80
2019-04-21T11:53:07.091Z,2.70
2019-04-21T11:54:19.149Z,2.50
2019-04-21T11:55:06.831Z,2.40
2019-04-21T11:56:06.919Z,2.60
2019-04-21T11:57:13.885Z,2.50
2019-04-21T11:58:07.716Z,2.60
2019-04-21T11:59:06.109Z,2.60
2019-04-21T12:00:06.228Z,2.60
2019-04-21T12:01:07.520Z,2.70
2019-04-21T12:02:06.056Z,2.60
2019-04-21T12:03:06.097Z,2.90
2019-04-21T12:04:07.506Z,2.80
2019-04-21T12:05:07.463Z,2.80
2019-04-21T12:06:06.862Z,2.60
2019-04-21T12:07:07.171Z,2.60
2019-04-21T12:08:18.846Z,2.60
2019-04-21T12:09:08.293Z,2.50
2019-04-21T12:10:05.968Z,2.60
2019-04-21T12:11:07.289Z,2.60
2019-04-21T12:12:07.369Z,2.40
2019-04-21T12:13:07.418Z,2.80
2019-04-21T12:14:06.006Z,2.50
2019-04-21T12:15:06.120Z,2.60
2019-04-21T12:16:07.128Z,3.00
2019-04-21T12:17:05.908Z,2.80
2019-04-21T12:18:06.088Z,2.70
2019-04-21T12:19:07.186Z,2.40
2019-04-21T12:20:06.453Z,2.80
2019-04-21T12:21:07.405Z,2.50
2019-04-21T12:22:15.647Z,2.40
2019-04-21T12:23:06.856Z,2.70
2019-04-21T12:24:06.922Z,2.20
2019-04-21T12:25:19.394Z,2.80
2019-04-21T12:26:05.795Z,2.80
2019-04-21T12:27:05.865Z,2.60
2019-04-21T12:28:05.902Z,2.60
2019-04-21T12:29:06.037Z,2.50
2019-04-21T12:30:06.007Z,2.60
2019-04-21T12:31:05.777Z,2.60
2019-04-21T12:32:05.814Z,2.70
2019-04-21T12:33:06.120Z,2.60
2019-04-21T12:34:05.817Z,2.90
2019-04-21T12:35:06.149Z,2.60
2019-04-21T12:36:06.172Z,2.10
2019-04-21T12:37:06.709Z,2.30
2019-04-21T12:38:06.743Z,2.60
2019-04-21T12:39:08.639Z,2.60
2019-04-21T12:40:06.452Z,2.50
2019-04-21T12:41:06.646Z,2.40
2019-04-21T12:42:06.760Z,2.80
2019-04-21T12:43:06.503Z,2.30
2019-04-21T12:44:06.697Z,2.30
2019-04-21T12:45:05.740Z,2.60
2019-04-21T12:46:05.581Z,2.80
2019-04-21T12:47:05.857Z,2.70
2019-04-21T12:48:06.125Z,4.10
2019-04-21T12:49:05.524Z,2.80
2019-04-21T12:50:06.778Z,2.80
2019-04-21T12:51:07.783Z,2.90
2019-04-21T12:52:05.981Z,2.40
2019-04-21T12:53:05.906Z,2.50
2019-04-21T12:54:05.881Z,2.30
2019-04-21T12:55:05.809Z,2.60
2019-04-21T12:56:18.032Z,2.40
2019-04-21T12:57:05.478Z,2.50
2019-04-21T12:58:05.632Z,2.50
2019-04-21T12:59:05.443Z,2.50
2019-04-21T13:00:06.703Z,2.60
2019-04-21T13:01:05.407Z,2.50
2019-04-21T13:02:05.398Z,2.50
2019-04-21T13:03:05.817Z,3.40
2019-04-21T13:04:05.909Z,2.90
2019-04-21T13:05:05.393Z,2.90
2019-04-21T13:06:05.567Z,3.50
2019-04-21T13:07:05.567Z,2.60
2019-04-21T13:08:05.322Z,2.50
2019-04-21T13:09:10.357Z,2.50
2019-04-21T13:10:06.475Z,2.70
2019-04-21T13:11:06.598Z,2.80
2019-04-21T13:12:05.273Z,2.40
2019-04-21T13:13:05.939Z,2.40
2019-04-21T13:14:06.133Z,2.40
2019-04-21T13:15:06.428Z,2.60
2019-04-21T13:16:05.366Z,2.60
2019-04-21T13:17:05.643Z,2.60
2019-04-21T13:18:05.204Z,2.30
2019-04-21T13:19:05.194Z,2.90
2019-04-21T13:20:05.373Z,2.60
2019-04-21T13:21:05.932Z,2.70
2019-04-21T13:22:05.884Z,2.70
2019-04-21T13:23:05.938Z,2.50
2019-04-21T13:24:05.275Z,2.60
2019-04-21T13:25:05.514Z,2.30
2019-04-21T13:26:06.564Z,2.80
2019-04-21T13:27:17.944Z,2.70
2019-04-21T13:28:05.182Z,2.70
2019-04-21T13:29:06.049Z,2.50
2019-04-21T13:30:06.260Z,2.50
2019-04-21T13:31:06.405Z,2.60
2019-04-21T13:32:06.600Z,2.30
2019-04-21T13:33:05.156Z,2.90
2019-04-21T13:34:06.128Z,2.40
2019-04-21T13:35:05.368Z,2.60
2019-04-21T13:36:07.497Z,2.40
2019-04-21T13:37:05.765Z,2.90
2019-04-21T13:38:04.984Z,2.50
2019-04-21T13:39:35.998Z,2.60
2019-04-21T13:40:26.214Z,2.60
2019-04-21T13:41:22.854Z,2.40
2019-04-21T13:42:14.446Z,2.70
2019-04-21T13:43:08.233Z,2.70
2019-04-21T13:44:05.229Z,2.80
2019-04-21T13:45:06.348Z,2.70
2019-04-21T13:46:05.851Z,2.60
2019-04-21T13:47:04.980Z,2.50
2019-04-21T13:48:06.453Z,2.80
2019-04-21T13:49:05.252Z,3.00
2019-04-21T13:50:06.730Z,2.70
2019-04-21T13:51:05.016Z,2.50
2019-04-21T13:52:04.915Z,2.50
2019-04-21T13:53:04.971Z,2.50
2019-04-21T13:54:04.803Z,3.00
2019-04-21T13:55:05.548Z,2.80
2019-04-21T13:56:04.827Z,2.90
2019-04-21T13:57:04.942Z,2.90
2019-04-21T13:58:17.871Z,2.70
2019-04-21T13:59:04.761Z,2.70
2019-04-21T14:00:05.693Z,2.80
2019-04-21T14:01:05.657Z,2.50
2019-04-21T14:02:04.827Z,2.60
2019-04-21T14:03:04.830Z,2.90
2019-04-21T14:04:05.282Z,2.80
2019-04-21T14:05:08.071Z,2.50
2019-04-21T14:06:06.682Z,2.60
2019-04-21T14:07:05.925Z,2.70
2019-04-21T14:08:05.091Z,2.50
2019-04-21T14:09:05.266Z,2.60
2019-04-21T14:10:08.207Z,2.60
2019-04-21T14:11:05.648Z,2.50
2019-04-21T14:12:05.409Z,2.50
2019-04-21T14:13:04.744Z,2.70
2019-04-21T14:14:06.023Z,2.60
2019-04-21T14:15:04.568Z,2.50
2019-04-21T14:16:04.565Z,2.60
2019-04-21T14:17:05.511Z,3.00
2019-04-21T14:18:04.713Z,2.90
2019-04-21T14:19:05.608Z,2.30
2019-04-21T14:20:04.615Z,2.60
2019-04-21T14:21:05.067Z,2.80
2019-04-21T14:22:05.643Z,2.60
2019-04-21T14:23:15.671Z,2.80
2019-04-21T14:24:06.588Z,3.10
2019-04-21T14:25:05.805Z,2.60